Terminal Aerodrome Forecast
Issued by NWS Bismarck, ND

Home | Current Version | Previous Version | Graphics & Text | Print | Product List | Glossary On
Versions: 1 2 3 4 5 6 7 8 9 10 11 12 13 14 15
000
FTUS43 KBIS 230310 AAA
TAFISN
TAF AMD
KISN 230310Z 2303/2324 10013G23KT P6SM VCTS BKN090CB
      TEMPO 2303/2304 VRB30G40KT 1/2SM +TSRAGR OVC035CB
     FM230900 14009KT P6SM BKN080
     FM231200 20007KT P6SM BKN100
     FM232000 28017G24KT P6SM FEW250=

USA.gov is the U.S. government's official web portal to all federal, state and local government web resources and services.